createdAt,value
2019-01-13T00:02:32.781Z,74.92
2019-01-13T00:05:08.560Z,74.96
2019-01-13T00:07:38.903Z,75.03
2019-01-13T00:10:09.400Z,75.16
2019-01-13T00:12:43.468Z,75.23
2019-01-13T00:15:14.100Z,75.43
2019-01-13T00:17:44.431Z,75.57
2019-01-13T00:20:49.588Z,75.49
2019-01-13T00:23:19.892Z,75.38
2019-01-13T00:25:50.778Z,75.75
2019-01-13T00:28:24.664Z,76.01
2019-01-13T00:30:56.614Z,76.06
2019-01-13T00:33:27.105Z,76.12
2019-01-13T00:36:01.574Z,76.18
2019-01-13T00:38:32.033Z,76.15
2019-01-13T00:41:02.549Z,76.34
2019-01-13T00:43:34.045Z,76.03
2019-01-13T00:46:06.556Z,76.15
2019-01-13T00:48:36.914Z,76.11
2019-01-13T00:51:09.994Z,75.98
2019-01-13T00:53:40.896Z,75.80
2019-01-13T00:56:11.392Z,75.68
2019-01-13T00:58:45.377Z,75.66
2019-01-13T01:01:17.370Z,75.46
2019-01-13T01:03:48.200Z,75.32
2019-01-13T01:06:20.072Z,75.28
2019-01-13T01:08:51.041Z,75.15
2019-01-13T01:11:23.865Z,75.07
2019-01-13T01:13:54.536Z,74.97
2019-01-13T01:16:27.107Z,74.75
2019-01-13T01:18:58.669Z,74.63
2019-01-13T01:21:31.229Z,74.43
2019-01-13T01:24:03.813Z,74.42
2019-01-13T01:26:35.719Z,74.22
2019-01-13T01:29:08.098Z,74.07
2019-01-13T01:31:38.847Z,73.79
2019-01-13T01:34:09.315Z,73.83
2019-01-13T01:36:39.757Z,73.75
2019-01-13T01:39:10.944Z,73.58
2019-01-13T01:41:41.367Z,73.79
2019-01-13T01:44:32.411Z,73.96
2019-01-13T01:47:02.845Z,73.85
2019-01-13T01:49:33.211Z,73.99
2019-01-13T01:52:05.756Z,74.33
2019-01-13T01:54:37.376Z,74.33
2019-01-13T01:57:10.870Z,74.34
2019-01-13T01:59:41.233Z,74.39
2019-01-13T02:02:11.589Z,74.46
2019-01-13T02:04:42.045Z,74.27
2019-01-13T02:07:12.338Z,74.25
2019-01-13T02:09:42.739Z,74.24
2019-01-13T02:12:13.644Z,74.33
2019-01-13T02:14:44.473Z,74.69
2019-01-13T02:17:15.162Z,74.60
2019-01-13T02:19:45.920Z,74.81
2019-01-13T02:22:16.391Z,74.92
2019-01-13T02:24:46.770Z,74.89
2019-01-13T02:27:17.071Z,74.62
2019-01-13T02:29:47.915Z,74.58
2019-01-13T02:32:18.794Z,74.62
2019-01-13T02:34:49.153Z,74.39
2019-01-13T02:37:19.422Z,74.62
2019-01-13T02:39:49.808Z,74.43
2019-01-13T02:42:20.507Z,74.46
2019-01-13T02:44:50.880Z,74.30
2019-01-13T02:47:21.232Z,74.29
2019-01-13T02:49:51.598Z,74.51
2019-01-13T02:52:22.078Z,74.14
2019-01-13T02:54:52.604Z,74.21
2019-01-13T02:57:22.893Z,73.98
2019-01-13T02:59:53.218Z,73.98
2019-01-13T03:02:23.598Z,73.72
2019-01-13T03:04:54.221Z,73.67
2019-01-13T03:07:24.585Z,73.72
2019-01-13T03:09:54.941Z,73.63
2019-01-13T03:12:25.896Z,73.65
2019-01-13T03:14:56.350Z,73.51
2019-01-13T03:17:26.682Z,73.68
2019-01-13T03:19:57.248Z,73.43
2019-01-13T03:22:28.394Z,73.40
2019-01-13T03:24:59.865Z,73.62
2019-01-13T03:27:30.215Z,73.48
2019-01-13T03:30:00.793Z,73.40
2019-01-13T03:32:31.252Z,73.33
2019-01-13T03:35:01.599Z,73.37
2019-01-13T03:37:32.035Z,73.28
2019-01-13T03:40:02.492Z,73.59
2019-01-13T03:42:32.886Z,73.27
2019-01-13T03:45:03.300Z,73.30
2019-01-13T03:47:33.598Z,73.32
2019-01-13T03:50:04.026Z,73.36
2019-01-13T03:52:34.463Z,73.56
2019-01-13T03:55:04.968Z,73.84
2019-01-13T03:57:35.341Z,73.85
2019-01-13T04:00:07.577Z,73.87
2019-01-13T04:02:37.983Z,73.93
2019-01-13T04:05:08.631Z,73.74
2019-01-13T04:07:38.997Z,74.05
2019-01-13T04:10:10.617Z,74.10
2019-01-13T04:12:40.966Z,74.01
2019-01-13T04:15:49.290Z,73.97
2019-01-13T04:18:20.456Z,73.93
2019-01-13T04:20:51.091Z,74.05
2019-01-13T04:23:21.357Z,74.19
2019-01-13T04:25:51.745Z,74.12
2019-01-13T04:28:22.023Z,74.17
2019-01-13T04:30:52.416Z,74.38
2019-01-13T04:33:22.940Z,74.30
2019-01-13T04:35:53.611Z,74.48
2019-01-13T04:38:23.910Z,74.76
2019-01-13T04:40:54.760Z,75.10
2019-01-13T04:43:25.052Z,75.13
2019-01-13T04:45:55.408Z,75.25
2019-01-13T04:48:26.224Z,75.19
2019-01-13T04:50:56.841Z,75.27
2019-01-13T04:53:27.896Z,75.17
2019-01-13T04:55:58.386Z,74.97
2019-01-13T04:58:29.236Z,74.89
2019-01-13T05:00:59.767Z,75.08
2019-01-13T05:03:30.181Z,74.96
2019-01-13T05:06:02.482Z,74.79
2019-01-13T05:08:33.890Z,74.74
2019-01-13T05:11:05.163Z,74.63
2019-01-13T05:13:35.517Z,74.70
2019-01-13T05:16:06.805Z,74.89
2019-01-13T05:18:37.222Z,74.68
2019-01-13T05:21:07.526Z,74.69
2019-01-13T05:23:38.684Z,74.84
2019-01-13T05:26:09.035Z,74.73
2019-01-13T05:28:50.625Z,74.68
2019-01-13T05:31:20.995Z,74.91
2019-01-13T05:33:51.271Z,74.92
2019-01-13T05:36:22.201Z,74.90
2019-01-13T05:38:52.983Z,74.83
2019-01-13T05:41:23.322Z,74.88
2019-01-13T05:43:53.715Z,75.08
2019-01-13T05:46:24.087Z,75.09
2019-01-13T05:48:54.403Z,75.36
2019-01-13T05:51:24.817Z,75.33
2019-01-13T05:53:55.476Z,75.22
2019-01-13T05:56:25.846Z,75.41
2019-01-13T05:58:56.215Z,75.04
2019-01-13T06:01:26.575Z,74.91
2019-01-13T06:03:56.949Z,74.93
2019-01-13T06:06:27.803Z,74.61
2019-01-13T06:08:58.085Z,74.59
2019-01-13T06:11:28.474Z,74.58
2019-01-13T06:13:59.123Z,74.22
2019-01-13T06:16:29.569Z,74.30
2019-01-13T06:18:59.841Z,74.36
2019-01-13T06:21:30.202Z,74.14
2019-01-13T06:24:01.021Z,74.43
2019-01-13T06:26:31.894Z,74.55
2019-01-13T06:29:02.221Z,74.46
2019-01-13T06:31:33.071Z,74.43
2019-01-13T06:34:03.991Z,74.53
2019-01-13T06:36:34.412Z,74.48
2019-01-13T06:39:08.788Z,74.67
2019-01-13T06:41:39.166Z,74.67
2019-01-13T06:44:09.555Z,74.59
2019-01-13T06:46:39.841Z,74.72
2019-01-13T06:49:10.196Z,74.81
2019-01-13T06:51:40.912Z,74.98
2019-01-13T06:54:11.299Z,74.92
2019-01-13T06:56:41.657Z,75.02
2019-01-13T06:59:11.968Z,74.90
2019-01-13T07:01:42.408Z,74.61
2019-01-13T07:04:12.750Z,74.40
2019-01-13T07:06:43.113Z,74.60
2019-01-13T07:09:13.576Z,74.58
2019-01-13T07:11:43.937Z,74.46
2019-01-13T07:14:14.390Z,74.29
2019-01-13T07:16:44.774Z,74.33
2019-01-13T07:19:15.069Z,74.14
2019-01-13T07:21:45.942Z,74.00
2019-01-13T07:24:16.391Z,74.16
2019-01-13T07:26:47.223Z,74.07
2019-01-13T07:29:17.580Z,74.16
2019-01-13T07:31:47.988Z,74.00
2019-01-13T07:34:18.248Z,73.95
2019-01-13T07:36:48.610Z,73.80
2019-01-13T07:39:19.393Z,73.99
2019-01-13T07:41:49.844Z,73.98
2019-01-13T07:44:20.151Z,74.12
2019-01-13T07:46:50.548Z,74.37
2019-01-13T07:49:21.134Z,74.29
2019-01-13T07:51:51.573Z,74.06
2019-01-13T07:54:22.427Z,73.96
2019-01-13T07:56:52.781Z,74.28
2019-01-13T07:59:23.166Z,74.10
2019-01-13T08:01:54.657Z,74.14
2019-01-13T08:04:25.007Z,74.31
2019-01-13T08:06:55.343Z,74.30
2019-01-13T08:09:26.278Z,74.18
2019-01-13T08:11:56.600Z,74.39
2019-01-13T08:14:27.052Z,74.49
2019-01-13T08:16:57.444Z,74.40
2019-01-13T08:19:27.824Z,74.41
2019-01-13T08:21:58.259Z,74.28
2019-01-13T08:24:29.168Z,73.95
2019-01-13T08:26:59.722Z,74.22
2019-01-13T08:29:30.037Z,74.32
2019-01-13T08:32:00.452Z,74.25
2019-01-13T08:34:30.737Z,74.23
2019-01-13T08:37:01.104Z,74.09
2019-01-13T08:39:31.472Z,74.26
2019-01-13T08:42:02.382Z,74.38
2019-01-13T08:44:33.654Z,74.84
2019-01-13T08:47:04.043Z,75.21
2019-01-13T08:49:34.850Z,75.75
2019-01-13T08:52:05.211Z,76.69
2019-01-13T08:54:36.148Z,77.03
2019-01-13T08:57:06.556Z,77.40
2019-01-13T08:59:37.034Z,77.87
2019-01-13T09:02:07.469Z,78.14
2019-01-13T09:04:37.874Z,78.60
2019-01-13T09:07:08.351Z,78.71
2019-01-13T09:09:39.239Z,79.11
2019-01-13T09:12:09.880Z,79.48
2019-01-13T09:14:41.037Z,79.58
2019-01-13T09:17:11.453Z,79.76
2019-01-13T09:19:43.093Z,79.70
2019-01-13T09:22:15.692Z,79.85
2019-01-13T09:24:46.054Z,79.89
2019-01-13T09:27:16.392Z,80.11
2019-01-13T09:29:46.762Z,80.16
2019-01-13T09:32:17.074Z,80.13
2019-01-13T09:34:49.937Z,80.01
2019-01-13T09:37:20.300Z,80.53
2019-01-13T09:39:51.248Z,80.16
2019-01-13T09:42:21.562Z,80.13
2019-01-13T09:44:51.939Z,79.92
2019-01-13T09:47:22.649Z,79.84
2019-01-13T09:49:53.006Z,79.83
2019-01-13T09:52:23.595Z,79.87
2019-01-13T09:54:53.961Z,79.56
2019-01-13T09:57:24.225Z,79.36
2019-01-13T09:59:54.615Z,79.70
2019-01-13T10:02:24.978Z,79.57
2019-01-13T10:04:56.309Z,79.61
2019-01-13T10:07:26.675Z,79.96
2019-01-13T10:09:57.377Z,80.08
2019-01-13T10:12:27.759Z,80.12
2019-01-13T10:14:58.176Z,80.00
2019-01-13T10:17:28.570Z,79.92
2019-01-13T10:19:58.920Z,79.70
2019-01-13T10:22:29.987Z,79.81
2019-01-13T10:25:00.421Z,80.10
2019-01-13T10:27:30.775Z,80.35
2019-01-13T10:30:01.118Z,80.40
2019-01-13T10:32:32.143Z,80.14
2019-01-13T10:35:43.345Z,80.47
2019-01-13T10:38:13.758Z,80.61
2019-01-13T10:40:44.530Z,80.88
2019-01-13T10:43:15.038Z,80.59
2019-01-13T10:45:45.426Z,80.65
2019-01-13T10:48:15.803Z,80.58
2019-01-13T10:50:46.658Z,80.62
2019-01-13T10:53:16.950Z,80.74
2019-01-13T10:55:47.744Z,80.88
2019-01-13T10:58:18.525Z,80.55
2019-01-13T11:00:49.375Z,80.06
2019-01-13T11:03:19.802Z,80.57
2019-01-13T11:05:50.816Z,80.74
2019-01-13T11:08:21.263Z,81.04
2019-01-13T11:10:51.695Z,81.05
2019-01-13T11:13:22.018Z,81.03
2019-01-13T11:15:53.008Z,81.22
2019-01-13T11:18:23.327Z,81.61
2019-01-13T11:20:53.665Z,81.86
2019-01-13T11:23:24.025Z,81.60
2019-01-13T11:25:54.336Z,81.86
2019-01-13T11:28:24.771Z,81.54
2019-01-13T11:30:55.194Z,81.38
2019-01-13T11:33:25.610Z,81.33
2019-01-13T11:35:55.982Z,81.06
2019-01-13T11:38:28.246Z,80.87
2019-01-13T11:40:58.605Z,80.63
2019-01-13T11:43:29.083Z,79.82
2019-01-13T11:45:59.382Z,79.97
2019-01-13T11:48:31.331Z,79.46
2019-01-13T11:51:03.856Z,78.93
2019-01-13T11:53:35.080Z,78.54
2019-01-13T11:56:05.828Z,78.49
2019-01-13T11:58:38.227Z,77.73
2019-01-13T12:01:09.707Z,76.99
2019-01-13T12:03:39.991Z,76.77
2019-01-13T12:06:10.332Z,76.63
2019-01-13T12:08:40.707Z,76.21
2019-01-13T12:11:11.060Z,76.26
2019-01-13T12:13:41.760Z,75.53
2019-01-13T12:16:12.286Z,75.74
2019-01-13T12:18:42.680Z,75.46
2019-01-13T12:21:13.071Z,75.08
2019-01-13T12:23:43.519Z,74.60
2019-01-13T12:26:13.924Z,74.59
2019-01-13T12:28:44.284Z,74.85
2019-01-13T12:31:14.758Z,74.92
2019-01-13T12:33:45.157Z,74.72
2019-01-13T12:36:15.537Z,74.50
2019-01-13T12:38:45.849Z,74.79
2019-01-13T12:41:16.338Z,75.16
2019-01-13T12:43:47.080Z,75.45
2019-01-13T12:46:17.363Z,75.30
2019-01-13T12:48:47.777Z,75.53
2019-01-13T12:51:18.525Z,75.40
2019-01-13T12:53:48.939Z,74.90
2019-01-13T12:56:19.331Z,74.74
2019-01-13T12:58:50.011Z,74.79
2019-01-13T13:01:20.387Z,74.96
2019-01-13T13:03:50.793Z,74.39
2019-01-13T13:06:21.662Z,74.68
2019-01-13T13:09:15.618Z,74.07
2019-01-13T13:11:46.313Z,73.81
2019-01-13T13:14:16.623Z,74.30
2019-01-13T13:16:47.148Z,74.34
2019-01-13T13:19:18.917Z,74.48
2019-01-13T13:21:49.257Z,74.10
2019-01-13T13:24:19.651Z,74.48
2019-01-13T13:26:49.929Z,74.58
2019-01-13T13:29:20.252Z,74.53
2019-01-13T13:31:50.650Z,74.50
2019-01-13T13:34:21.491Z,74.67
2019-01-13T13:36:52.484Z,74.46
2019-01-13T13:39:22.760Z,74.79
2019-01-13T13:41:53.194Z,74.68
2019-01-13T13:44:23.622Z,75.13
2019-01-13T13:46:54.150Z,75.84
2019-01-13T13:49:24.600Z,76.72
2019-01-13T13:51:55.500Z,77.52
2019-01-13T13:54:25.890Z,77.58
2019-01-13T13:56:56.408Z,78.48
2019-01-13T13:59:26.749Z,78.68
2019-01-13T14:01:57.087Z,78.90
2019-01-13T14:04:28.443Z,78.31
2019-01-13T14:06:58.732Z,78.05
2019-01-13T14:09:29.220Z,77.87
2019-01-13T14:11:59.686Z,77.44
2019-01-13T14:14:30.172Z,77.34
2019-01-13T14:17:00.492Z,77.13
2019-01-13T14:19:31.420Z,76.67
2019-01-13T14:22:01.970Z,76.92
2019-01-13T14:24:32.303Z,76.96
2019-01-13T14:27:02.717Z,77.26
2019-01-13T14:29:33.478Z,77.24
2019-01-13T14:32:03.899Z,77.50
2019-01-13T14:34:34.398Z,77.63
2019-01-13T14:37:04.776Z,77.89
2019-01-13T14:39:35.200Z,78.08
2019-01-13T14:42:06.140Z,78.34
2019-01-13T14:44:36.545Z,78.16
2019-01-13T14:47:07.265Z,78.09
2019-01-13T14:49:37.701Z,78.32
2019-01-13T14:52:08.101Z,78.59
2019-01-13T14:54:38.475Z,78.92
2019-01-13T14:57:12.005Z,79.22
2019-01-13T14:59:42.424Z,79.86
2019-01-13T15:02:13.036Z,80.31
2019-01-13T15:04:43.428Z,80.83
2019-01-13T15:07:14.099Z,81.28
2019-01-13T15:09:44.531Z,81.36
2019-01-13T15:12:15.057Z,81.52
2019-01-13T15:14:45.637Z,81.18
2019-01-13T15:17:16.423Z,81.34
2019-01-13T15:19:46.996Z,81.61
2019-01-13T15:22:17.515Z,81.88
2019-01-13T15:24:48.133Z,82.14
2019-01-13T15:27:18.625Z,82.28
2019-01-13T15:29:48.942Z,82.43
2019-01-13T15:32:19.886Z,82.44
2019-01-13T15:34:50.932Z,82.29
2019-01-13T15:37:21.399Z,82.19
2019-01-13T15:39:52.623Z,82.21
2019-01-13T15:42:55.992Z,82.40
2019-01-13T15:45:27.527Z,82.44
2019-01-13T15:47:58.278Z,82.44
2019-01-13T15:50:30.461Z,82.54
2019-01-13T15:53:01.097Z,82.39
2019-01-13T15:55:31.612Z,82.20
2019-01-13T15:58:02.107Z,82.00
2019-01-13T16:00:37.347Z,81.78
2019-01-13T16:03:10.182Z,81.76
2019-01-13T16:05:41.204Z,81.47
2019-01-13T16:08:12.034Z,81.40
2019-01-13T16:10:42.663Z,80.98
2019-01-13T16:13:13.302Z,80.78
2019-01-13T16:15:43.804Z,80.55
2019-01-13T16:18:14.072Z,80.48
2019-01-13T16:20:44.999Z,80.48
2019-01-13T16:23:15.441Z,80.61
2019-01-13T16:25:45.794Z,81.07
2019-01-13T16:28:16.168Z,81.17
2019-01-13T16:30:46.579Z,81.57
2019-01-13T16:33:17.802Z,81.97
2019-01-13T16:35:48.117Z,82.33
2019-01-13T16:38:18.544Z,82.27
2019-01-13T16:40:48.936Z,82.34
2019-01-13T16:43:19.710Z,82.78
2019-01-13T16:45:51.867Z,83.01
2019-01-13T16:48:22.248Z,83.18
2019-01-13T16:51:08.511Z,83.39
2019-01-13T16:53:40.865Z,83.45
2019-01-13T16:56:11.473Z,83.17
2019-01-13T16:58:41.885Z,83.33
2019-01-13T17:01:13.344Z,83.04
2019-01-13T17:03:44.087Z,82.85
2019-01-13T17:06:14.713Z,82.73
2019-01-13T17:08:45.135Z,82.62
2019-01-13T17:11:15.559Z,82.37
2019-01-13T17:13:45.973Z,82.29
2019-01-13T17:16:16.379Z,82.14
2019-01-13T17:18:47.158Z,81.94
2019-01-13T17:21:17.545Z,81.66
2019-01-13T17:23:47.879Z,81.54
2019-01-13T17:26:18.204Z,81.29
2019-01-13T17:28:50.490Z,81.30
2019-01-13T17:31:21.407Z,81.05
2019-01-13T17:33:51.916Z,80.91
2019-01-13T17:36:22.389Z,80.97
2019-01-13T17:38:52.884Z,80.52
2019-01-13T17:41:23.269Z,80.66
2019-01-13T17:43:53.771Z,80.76
2019-01-13T17:46:24.158Z,80.92
2019-01-13T17:48:54.552Z,81.01
2019-01-13T17:51:24.890Z,81.00
2019-01-13T17:53:56.275Z,81.11
2019-01-13T17:56:26.607Z,81.10
2019-01-13T17:58:58.710Z,80.96
2019-01-13T18:01:42.289Z,80.67
2019-01-13T18:04:12.839Z,80.70
2019-01-13T18:06:43.731Z,80.27
2019-01-13T18:09:14.142Z,80.04
2019-01-13T18:11:45.157Z,79.66
2019-01-13T18:14:15.551Z,79.82
2019-01-13T18:17:10.130Z,80.15
2019-01-13T18:19:40.758Z,79.74
2019-01-13T18:22:11.471Z,79.83
2019-01-13T18:24:42.097Z,79.31
2019-01-13T18:27:13.211Z,79.44
2019-01-13T18:29:44.244Z,79.08
2019-01-13T18:32:14.764Z,78.40
2019-01-13T18:34:50.295Z,78.02
2019-01-13T18:37:18.226Z,77.53
2019-01-13T18:39:48.762Z,77.18
2019-01-13T18:42:19.211Z,76.68
2019-01-13T18:44:49.789Z,75.68
2019-01-13T18:47:20.432Z,75.00
2019-01-13T18:49:51.009Z,74.80
2019-01-13T18:52:21.548Z,74.88
2019-01-13T18:54:52.483Z,74.35
2019-01-13T18:57:23.171Z,73.42
2019-01-13T18:59:53.959Z,74.05
2019-01-13T19:02:26.988Z,73.78
2019-01-13T19:04:57.698Z,76.44
2019-01-13T19:07:28.474Z,77.79
2019-01-13T19:09:59.185Z,79.92
2019-01-13T19:12:30.036Z,80.78
2019-01-13T19:15:02.817Z,82.28
2019-01-13T19:17:33.363Z,82.92
2019-01-13T19:20:19.672Z,84.54
2019-01-13T19:22:52.838Z,82.46
2019-01-13T19:25:41.307Z,82.77
2019-01-13T19:28:11.613Z,82.10
2019-01-13T19:30:42.169Z,81.38
2019-01-13T19:33:25.121Z,81.31
2019-01-13T19:35:56.357Z,81.89
2019-01-13T19:38:26.941Z,82.14
2019-01-13T19:40:57.626Z,81.12
2019-01-13T19:43:28.320Z,81.57
2019-01-13T19:45:59.602Z,81.38
2019-01-13T19:48:30.135Z,80.71
2019-01-13T19:51:02.372Z,80.26
2019-01-13T19:53:33.955Z,80.35
2019-01-13T19:56:05.534Z,80.42
2019-01-13T19:58:35.931Z,80.92
2019-01-13T20:01:07.890Z,79.52
2019-01-13T20:03:38.217Z,80.33
2019-01-13T20:06:09.070Z,80.76
2019-01-13T20:08:39.426Z,81.26
2019-01-13T20:11:09.892Z,81.38
2019-01-13T20:13:40.157Z,80.53
2019-01-13T20:16:11.319Z,79.87
2019-01-13T20:18:41.787Z,79.75
2019-01-13T20:21:12.189Z,80.19
2019-01-13T20:23:42.767Z,80.26
2019-01-13T20:26:13.217Z,79.99
2019-01-13T20:28:43.573Z,79.77
2019-01-13T20:31:14.607Z,79.67
2019-01-13T20:33:49.126Z,80.54
2019-01-13T20:36:19.681Z,80.30
2019-01-13T20:38:49.979Z,80.64
2019-01-13T20:41:20.422Z,80.16
2019-01-13T20:43:53.381Z,79.75
2019-01-13T20:46:24.049Z,79.16
2019-01-13T20:48:56.373Z,78.59
2019-01-13T20:51:26.684Z,77.88
2019-01-13T20:53:57.154Z,77.87
2019-01-13T20:56:30.878Z,77.02
2019-01-13T20:59:11.138Z,75.99
2019-01-13T21:01:47.969Z,76.44
2019-01-13T21:04:22.975Z,75.08
2019-01-13T21:06:54.393Z,75.89
2019-01-13T21:09:24.788Z,76.17
2019-01-13T21:11:55.199Z,76.63
2019-01-13T21:14:25.661Z,75.86
2019-01-13T21:16:56.445Z,76.27
2019-01-13T21:19:26.843Z,76.75
2019-01-13T21:21:57.321Z,77.39
2019-01-13T21:24:28.090Z,77.93
2019-01-13T21:26:58.462Z,78.13
2019-01-13T21:29:28.838Z,78.57
2019-01-13T21:32:01.422Z,79.40
2019-01-13T21:34:31.826Z,80.25
2019-01-13T21:37:02.448Z,81.22
2019-01-13T21:39:33.797Z,81.30
2019-01-13T21:42:10.008Z,80.46
2019-01-13T21:44:40.506Z,79.76
2019-01-13T21:47:15.239Z,80.26
2019-01-13T21:49:46.967Z,79.14
2019-01-13T21:52:17.418Z,78.37
2019-01-13T21:54:54.096Z,78.73
2019-01-13T21:57:24.765Z,78.27
2019-01-13T21:59:58.477Z,78.18
2019-01-13T22:02:28.862Z,78.10
2019-01-13T22:04:59.616Z,78.49
2019-01-13T22:07:48.802Z,77.79
2019-01-13T22:10:20.567Z,77.52
2019-01-13T22:12:50.958Z,77.10
2019-01-13T22:15:22.465Z,77.11
2019-01-13T22:17:53.124Z,77.46
2019-01-13T22:20:24.496Z,77.54
2019-01-13T22:22:55.002Z,76.48
2019-01-13T22:25:25.371Z,76.23
2019-01-13T22:27:55.804Z,76.58
2019-01-13T22:30:26.110Z,76.00
2019-01-13T22:32:56.870Z,76.21
2019-01-13T22:35:27.268Z,75.86
2019-01-13T22:37:58.068Z,75.77
2019-01-13T22:40:28.521Z,76.65
2019-01-13T22:42:58.908Z,76.12
2019-01-13T22:45:29.320Z,74.50
2019-01-13T22:48:01.339Z,74.84
2019-01-13T22:50:31.754Z,75.34
2019-01-13T22:53:02.598Z,74.93
2019-01-13T22:55:32.913Z,74.35
2019-01-13T22:58:04.660Z,74.02
2019-01-13T23:01:33.464Z,73.79
2019-01-13T23:04:09.626Z,73.39
2019-01-13T23:06:43.068Z,73.21
2019-01-13T23:09:14.650Z,73.06
2019-01-13T23:11:45.525Z,72.46
2019-01-13T23:14:16.667Z,71.94
2019-01-13T23:16:58.255Z,72.37
2019-01-13T23:19:44.423Z,71.92
2019-01-13T23:22:15.290Z,71.78
2019-01-13T23:24:48.694Z,71.30
2019-01-13T23:27:23.403Z,71.64
2019-01-13T23:29:54.020Z,71.37
2019-01-13T23:32:24.404Z,72.10
2019-01-13T23:34:54.736Z,71.94
2019-01-13T23:37:25.180Z,71.89
2019-01-13T23:39:55.475Z,71.82
2019-01-13T23:42:26.344Z,71.55
2019-01-13T23:44:56.692Z,71.73
2019-01-13T23:47:27.056Z,72.22
2019-01-13T23:49:57.354Z,71.94
2019-01-13T23:52:27.826Z,72.54
2019-01-13T23:55:00.760Z,72.62
2019-01-13T23:57:31.107Z,72.82
